Time;durP1;ratioP1;P1;durP2;ratioP2;P2;SDS_P1;SDS_P2;PMS_P1;PMS_P2;Temp;Humidity;BMP_temperature;BMP_pressure;BME280_temperature;BME280_humidity;BME280_pressure;Samples;Min_cycle;Max_cycle;Signal;HPM_P1;HPM_P2
2024/03/15 00:01:24;;;;;;;9.37;8.47;;;11.00;99.90;;;;;;5032359;28;20211;-73
2024/03/15 00:03:51;;;;;;;8.57;7.73;;;11.00;99.90;;;;;;5032101;28;20303;-73
2024/03/15 00:06:18;;;;;;;8.87;8.07;;;11.00;99.90;;;;;;5032277;28;20583;-73
2024/03/15 00:08:46;;;;;;;8.80;7.90;;;11.00;99.90;;;;;;5032092;28;20266;-72
2024/03/15 00:11:13;;;;;;;8.57;7.73;;;11.00;99.90;;;;;;5040203;28;20234;-72
2024/03/15 00:13:41;;;;;;;9.40;8.50;;;11.00;99.90;;;;;;5068437;28;20234;-73
2024/03/15 00:16:10;;;;;;;8.77;7.87;;;11.00;99.90;;;;;;5067971;28;20272;-73
2024/03/15 00:18:37;;;;;;;8.77;8.00;;;11.00;99.90;;;;;;5052713;28;20215;-73
2024/03/15 00:21:04;;;;;;;9.20;8.27;;;11.00;99.90;;;;;;5052083;28;20684;-73
2024/03/15 00:23:32;;;;;;;11.27;9.30;;;10.90;99.90;;;;;;5051546;28;20218;-73
2024/03/15 00:25:59;;;;;;;11.43;8.53;;;10.90;99.90;;;;;;5068291;28;20202;-73
2024/03/15 00:28:27;;;;;;;9.60;8.60;;;10.90;99.90;;;;;;5051842;28;20485;-73
2024/03/15 00:30:54;;;;;;;10.23;9.23;;;10.90;99.90;;;;;;5051848;28;20272;-73
2024/03/15 00:33:21;;;;;;;9.07;8.17;;;10.90;99.90;;;;;;5051409;28;20667;-71
2024/03/15 00:35:49;;;;;;;9.53;8.60;;;10.90;99.90;;;;;;5051889;28;20295;-72
2024/03/15 00:38:16;;;;;;;12.00;9.00;;;10.90;99.90;;;;;;5052221;28;20298;-71
2024/03/15 00:40:43;;;;;;;9.07;8.17;;;10.90;99.90;;;;;;5051393;28;21037;-71
2024/03/15 00:43:15;;;;;;;9.50;8.60;;;10.90;99.90;;;;;;5051858;28;20318;-71
2024/03/15 00:45:43;;;;;;;9.93;9.03;;;10.90;99.90;;;;;;5053381;28;20230;-71
2024/03/15 00:48:10;;;;;;;10.50;9.40;;;10.80;99.90;;;;;;5051921;28;20238;-71
2024/03/15 00:50:37;;;;;;;10.37;9.37;;;10.80;99.90;;;;;;5052077;28;20278;-71
2024/03/15 00:53:04;;;;;;;9.87;8.97;;;10.80;99.90;;;;;;5061199;28;20683;-73
2024/03/15 00:55:32;;;;;;;11.37;9.90;;;10.80;99.90;;;;;;5051907;28;20207;-73
2024/03/15 00:57:59;;;;;;;10.80;9.73;;;10.80;99.90;;;;;;5040994;28;20219;-73
2024/03/15 01:00:26;;;;;;;9.57;8.57;;;10.80;99.90;;;;;;5032064;28;20207;-73
2024/03/15 01:02:53;;;;;;;10.97;8.87;;;10.80;99.90;;;;;;5049929;28;20198;-73
2024/03/15 01:05:20;;;;;;;10.70;9.60;;;10.80;99.90;;;;;;5069237;28;20293;-74
2024/03/15 01:07:47;;;;;;;10.23;9.10;;;10.80;99.90;;;;;;5071944;28;20313;-74
2024/03/15 01:10:14;;;;;;;10.97;9.67;;;10.80;99.90;;;;;;5071419;28;20234;-74
2024/03/15 01:12:41;;;;;;;11.10;10.00;;;10.80;99.90;;;;;;5055401;28;20298;-74
2024/03/15 01:15:09;;;;;;;10.60;9.60;;;10.80;99.90;;;;;;5054822;28;20234;-73
2024/03/15 01:17:36;;;;;;;11.07;9.47;;;10.80;99.90;;;;;;5055702;28;20301;-74
2024/03/15 01:20:05;;;;;;;10.93;9.33;;;10.80;99.90;;;;;;5055178;28;20207;-74
2024/03/15 01:22:32;;;;;;;9.97;8.97;;;10.80;99.90;;;;;;5071542;28;20203;-74
2024/03/15 01:24:59;;;;;;;10.83;9.80;;;10.80;99.90;;;;;;5054989;28;20205;-71
2024/03/15 01:27:26;;;;;;;10.43;9.43;;;10.80;99.90;;;;;;5055053;28;20242;-72
2024/03/15 01:29:54;;;;;;;10.13;9.13;;;10.80;99.90;;;;;;5055117;28;20687;-72
2024/03/15 01:32:22;;;;;;;10.37;9.27;;;10.80;99.90;;;;;;5054908;28;20621;-72
2024/03/15 01:34:50;;;;;;;10.80;9.70;;;10.80;99.90;;;;;;5055432;28;20207;-73
2024/03/15 01:37:17;;;;;;;9.97;9.00;;;10.80;99.90;;;;;;5055395;28;20245;-74
2024/03/15 01:39:47;;;;;;;10.17;9.17;;;10.80;99.90;;;;;;5054806;28;20289;-74
2024/03/15 01:42:14;;;;;;;11.20;9.40;;;10.80;99.90;;;;;;5055669;28;20565;-74
2024/03/15 01:44:46;;;;;;;12.67;9.70;;;10.80;99.90;;;;;;5071023;28;20199;-74
2024/03/15 01:47:15;;;;;;;11.50;9.07;;;10.70;99.90;;;;;;5071431;28;20630;-74
2024/03/15 01:49:42;;;;;;;10.17;9.27;;;10.70;99.90;;;;;;5071229;28;20203;-74
2024/03/15 01:52:09;;;;;;;10.27;9.30;;;10.70;99.90;;;;;;5071004;28;20625;-74
2024/03/15 01:54:36;;;;;;;10.23;9.23;;;10.70;99.90;;;;;;5054715;28;20234;-74
2024/03/15 01:57:04;;;;;;;9.73;8.83;;;10.70;99.90;;;;;;5051450;28;20302;-74
2024/03/15 01:59:32;;;;;;;10.80;9.80;;;10.70;99.90;;;;;;5034759;28;20736;-74
2024/03/15 02:02:02;;;;;;;10.87;9.77;;;10.60;99.90;;;;;;5043353;28;20205;-74
2024/03/15 02:04:30;;;;;;;10.00;9.10;;;10.70;99.90;;;;;;5054380;28;20735;-74
2024/03/15 02:06:57;;;;;;;10.67;9.57;;;10.60;99.90;;;;;;5053746;28;20203;-75
2024/03/15 02:09:24;;;;;;;10.47;9.37;;;10.60;99.90;;;;;;5054137;28;20313;-72
2024/03/15 02:11:52;;;;;;;10.90;9.80;;;10.60;99.90;;;;;;5054568;28;20210;-72
2024/03/15 02:14:19;;;;;;;10.63;9.63;;;10.60;99.90;;;;;;5054227;28;20241;-72
2024/03/15 02:16:47;;;;;;;10.27;9.20;;;10.50;99.90;;;;;;5053356;28;20248;-73
2024/03/15 02:19:14;;;;;;;9.87;9.00;;;10.50;99.90;;;;;;5054022;28;20705;-72
2024/03/15 02:21:41;;;;;;;9.83;8.83;;;10.50;99.90;;;;;;5054016;28;21015;-72
2024/03/15 02:24:08;;;;;;;10.03;9.03;;;10.50;99.90;;;;;;5053986;28;20207;-72
2024/03/15 02:26:35;;;;;;;10.20;9.27;;;10.50;99.90;;;;;;5050587;28;20235;-72
2024/03/15 02:29:03;;;;;;;9.93;9.00;;;10.50;99.90;;;;;;5054149;28;20234;-72
2024/03/15 02:31:30;;;;;;;10.13;9.23;;;10.40;99.90;;;;;;5054114;28;20621;-72
2024/03/15 02:33:57;;;;;;;10.60;9.60;;;10.40;99.90;;;;;;5053799;28;20256;-72
2024/03/15 02:36:25;;;;;;;10.43;9.43;;;10.40;99.90;;;;;;5053973;28;20206;-72
2024/03/15 02:38:52;;;;;;;11.57;9.37;;;10.40;99.90;;;;;;5053595;28;20302;-72
2024/03/15 02:41:20;;;;;;;10.33;9.43;;;10.40;99.90;;;;;;5069633;28;20831;-72
2024/03/15 02:43:47;;;;;;;10.10;9.10;;;10.40;99.90;;;;;;5070582;28;20340;-72
2024/03/15 02:46:15;;;;;;;10.27;9.17;;;10.30;99.90;;;;;;5069794;28;20420;-72
2024/03/15 02:48:43;;;;;;;10.33;9.33;;;10.30;99.90;;;;;;5053074;28;20781;-72
2024/03/15 02:51:10;;;;;;;11.17;9.87;;;10.30;99.90;;;;;;5069999;28;20681;-72
2024/03/15 02:53:37;;;;;;;10.97;9.10;;;10.30;99.90;;;;;;5069708;28;20218;-72
2024/03/15 02:56:05;;;;;;;11.20;10.10;;;10.30;99.90;;;;;;5069741;28;20207;-72
2024/03/15 02:58:31;;;;;;;9.97;9.07;;;10.40;99.90;;;;;;5069522;28;20289;-72
2024/03/15 03:00:59;;;;;;;11.00;9.90;;;10.40;99.90;;;;;;5069999;28;20637;-72
2024/03/15 03:03:25;;;;;;;11.00;10.00;;;10.30;99.90;;;;;;5067893;28;20207;-72
2024/03/15 03:05:53;;;;;;;10.43;9.33;;;10.40;99.90;;;;;;5052399;28;20286;-75
2024/03/15 03:08:20;;;;;;;11.10;10.00;;;10.40;99.90;;;;;;5057054;28;20236;-75
2024/03/15 03:10:48;;;;;;;10.90;9.80;;;10.30;99.90;;;;;;5053003;28;20289;-75
2024/03/15 03:13:14;;;;;;;11.03;9.93;;;10.30;99.90;;;;;;5058275;28;20545;-75
2024/03/15 03:15:41;;;;;;;10.87;9.87;;;10.30;99.90;;;;;;5052981;28;20617;-75
2024/03/15 03:18:08;;;;;;;11.07;9.93;;;10.30;99.90;;;;;;5061571;28;20206;-75
2024/03/15 03:20:35;;;;;;;11.30;10.10;;;10.30;99.90;;;;;;5058356;28;20632;-75
2024/03/15 03:23:03;;;;;;;11.53;10.33;;;10.30;99.90;;;;;;5061443;28;20471;-75
2024/03/15 03:25:31;;;;;;;11.30;10.20;;;10.20;99.90;;;;;;5052686;28;20203;-75
2024/03/15 03:27:58;;;;;;;11.70;10.53;;;10.30;99.90;;;;;;5060898;28;20211;-75
2024/03/15 03:30:25;;;;;;;11.60;10.03;;;10.30;99.90;;;;;;5051178;28;20202;-75
2024/03/15 03:32:52;;;;;;;11.00;9.73;;;10.30;99.90;;;;;;5052443;28;20257;-75
2024/03/15 03:35:19;;;;;;;10.90;9.83;;;10.20;99.90;;;;;;5058936;28;20678;-75
2024/03/15 03:37:46;;;;;;;10.87;9.70;;;10.20;99.90;;;;;;5056920;28;20207;-75
2024/03/15 03:40:15;;;;;;;13.90;10.07;;;10.20;99.90;;;;;;5069189;28;20210;-75
2024/03/15 03:42:44;;;;;;;11.67;10.50;;;10.20;99.90;;;;;;5069414;28;20238;-73
2024/03/15 03:45:16;;;;;;;12.47;9.87;;;10.20;99.90;;;;;;5069353;28;20293;-73
2024/03/15 03:47:44;;;;;;;12.60;10.13;;;10.20;99.90;;;;;;5069662;28;20292;-73
2024/03/15 03:50:12;;;;;;;10.60;9.47;;;10.20;99.90;;;;;;5052226;28;21019;-73
2024/03/15 03:52:40;;;;;;;11.37;10.17;;;10.20;99.90;;;;;;5052834;28;20214;-73
2024/03/15 03:55:07;;;;;;;10.77;9.77;;;10.20;99.90;;;;;;5052733;28;20203;-75
2024/03/15 03:57:35;;;;;;;11.40;10.17;;;10.20;99.90;;;;;;5054788;28;20256;-75
2024/03/15 04:00:07;;;;;;;12.07;10.90;;;10.20;99.90;;;;;;5068614;28;20206;-74
2024/03/15 04:02:34;;;;;;;11.60;10.40;;;10.20;99.90;;;;;;5054070;28;20366;-75
2024/03/15 04:05:03;;;;;;;11.63;10.30;;;10.10;99.90;;;;;;5059687;28;20631;-75
2024/03/15 04:07:30;;;;;;;12.03;10.80;;;10.20;99.90;;;;;;5061083;28;20850;-75
2024/03/15 04:09:57;;;;;;;11.80;10.67;;;10.10;99.90;;;;;;5068660;28;20353;-74
2024/03/15 04:12:26;;;;;;;12.63;11.20;;;10.10;99.90;;;;;;5052427;28;20206;-74
2024/03/15 04:14:53;;;;;;;12.57;10.37;;;10.10;99.90;;;;;;5052349;28;20686;-73
2024/03/15 04:17:20;;;;;;;18.20;11.10;;;10.10;99.90;;;;;;5051913;28;20286;-73
2024/03/15 04:19:49;;;;;;;13.27;11.13;;;10.00;99.90;;;;;;5052292;28;20234;-73
2024/03/15 04:22:16;;;;;;;12.27;11.00;;;10.00;99.90;;;;;;5051135;28;20211;-73
2024/03/15 04:24:43;;;;;;;13.17;11.00;;;10.00;99.90;;;;;;5049885;28;20211;-72
2024/03/15 04:27:10;;;;;;;12.17;10.80;;;10.00;99.90;;;;;;5048539;28;20713;-72
2024/03/15 04:29:37;;;;;;;12.83;11.33;;;10.00;99.90;;;;;;5049402;28;20793;-73
2024/03/15 04:32:08;;;;;;;12.83;10.67;;;10.00;99.90;;;;;;5050256;28;20238;-73
2024/03/15 04:34:37;;;;;;;13.07;10.97;;;10.00;99.90;;;;;;5051110;28;20290;-73
2024/03/15 04:37:04;;;;;;;12.17;10.97;;;10.00;99.90;;;;;;5050421;28;20214;-72
2024/03/15 04:39:32;;;;;;;12.23;10.93;;;10.00;99.90;;;;;;5049164;28;20712;-73
2024/03/15 04:41:59;;;;;;;11.63;10.43;;;10.00;99.90;;;;;;5069817;28;20234;-72
2024/03/15 04:44:26;;;;;;;12.43;10.73;;;10.00;99.90;;;;;;5070388;28;20314;-72
2024/03/15 04:46:52;;;;;;;11.93;10.60;;;10.00;99.90;;;;;;5058459;28;20236;-72
2024/03/15 04:49:20;;;;;;;11.97;10.70;;;10.00;99.90;;;;;;5033517;28;20326;-73
2024/03/15 04:51:47;;;;;;;12.83;11.30;;;10.00;99.90;;;;;;5034019;28;20298;-72
2024/03/15 04:54:15;;;;;;;15.37;12.23;;;10.00;99.90;;;;;;5049191;28;20211;-73
2024/03/15 04:56:44;;;;;;;12.87;11.47;;;10.00;99.90;;;;;;5053026;28;20289;-73
2024/03/15 04:59:12;;;;;;;12.73;11.23;;;10.00;99.90;;;;;;5053160;28;20667;-73
2024/03/15 05:01:39;;;;;;;12.90;11.67;;;9.90;99.90;;;;;;5052300;28;20212;-72
2024/03/15 05:04:06;;;;;;;12.93;11.60;;;9.90;99.90;;;;;;5054146;28;20736;-72
2024/03/15 05:06:33;;;;;;;12.90;10.93;;;9.90;99.90;;;;;;5053637;28;20194;-73
2024/03/15 05:09:00;;;;;;;13.30;11.87;;;9.90;99.90;;;;;;5053877;28;20253;-72
2024/03/15 05:11:27;;;;;;;12.90;11.37;;;9.90;99.90;;;;;;5053122;28;20736;-72
2024/03/15 05:13:54;;;;;;;12.43;11.23;;;9.90;99.90;;;;;;5053157;28;20317;-72
2024/03/15 05:16:22;;;;;;;12.67;11.33;;;9.90;99.90;;;;;;5053682;28;20198;-72
2024/03/15 05:18:49;;;;;;;12.57;11.27;;;9.90;99.90;;;;;;5054029;28;20268;-73
2024/03/15 05:21:16;;;;;;;13.23;11.30;;;9.90;99.90;;;;;;5053705;28;20198;-72
2024/03/15 05:23:43;;;;;;;14.77;11.33;;;9.90;99.90;;;;;;5070483;28;20294;-72
2024/03/15 05:26:12;;;;;;;13.40;11.57;;;9.80;99.90;;;;;;5052967;28;20213;-72
2024/03/15 05:28:39;;;;;;;12.00;10.80;;;9.80;99.90;;;;;;5054055;28;20656;-72
2024/03/15 05:31:06;;;;;;;11.97;10.77;;;9.80;99.90;;;;;;5052946;28;20740;-72
2024/03/15 05:33:34;;;;;;;13.07;11.43;;;9.80;99.90;;;;;;5053046;28;20753;-72
2024/03/15 05:36:02;;;;;;;13.47;11.67;;;9.80;99.90;;;;;;5066442;28;20199;-73
2024/03/15 05:38:30;;;;;;;13.67;12.27;;;9.80;99.90;;;;;;5052000;28;20804;-72
2024/03/15 05:40:57;;;;;;;14.10;11.50;;;9.70;99.90;;;;;;5051854;28;21336;-72
2024/03/15 05:43:24;;;;;;;16.03;12.00;;;9.70;99.90;;;;;;5050452;28;20289;-72
2024/03/15 05:45:51;;;;;;;13.57;10.87;;;9.70;99.90;;;;;;5052881;28;20290;-72
2024/03/15 05:48:18;;;;;;;12.83;11.53;;;9.80;99.90;;;;;;5053019;28;20222;-72
2024/03/15 05:50:45;;;;;;;14.10;11.47;;;9.80;99.90;;;;;;5053483;28;20223;-72
2024/03/15 05:53:12;;;;;;;15.43;11.77;;;9.70;99.90;;;;;;5051065;28;20207;-73
2024/03/15 05:55:39;;;;;;;12.87;11.53;;;9.70;99.90;;;;;;5053027;28;20275;-73
2024/03/15 05:58:06;;;;;;;13.27;11.17;;;9.70;99.90;;;;;;5052790;28;20306;-72
2024/03/15 06:00:35;;;;;;;12.63;11.33;;;9.70;99.90;;;;;;5052757;28;20315;-73
2024/03/15 06:03:05;;;;;;;13.27;11.83;;;9.70;99.90;;;;;;5053433;28;20226;-72
2024/03/15 06:05:32;;;;;;;12.13;10.83;;;9.70;99.90;;;;;;5053224;28;20199;-72
2024/03/15 06:07:59;;;;;;;12.60;11.23;;;9.70;99.90;;;;;;5052786;28;20203;-73
2024/03/15 06:10:28;;;;;;;12.90;11.53;;;9.70;99.90;;;;;;5052852;28;20284;-72
2024/03/15 06:12:56;;;;;;;13.57;12.17;;;9.70;99.90;;;;;;5052634;28;20566;-73
2024/03/15 06:15:23;;;;;;;14.90;11.67;;;9.70;99.90;;;;;;5052022;28;20309;-72
2024/03/15 06:17:50;;;;;;;13.83;11.57;;;9.70;99.90;;;;;;5069350;28;20631;-72
2024/03/15 06:20:18;;;;;;;14.10;11.60;;;9.70;99.90;;;;;;5052010;28;20748;-72
2024/03/15 06:22:45;;;;;;;12.97;11.17;;;9.70;99.90;;;;;;5053487;28;20295;-73
2024/03/15 06:25:12;;;;;;;13.90;11.37;;;9.80;99.90;;;;;;5052142;28;20254;-72
2024/03/15 06:27:40;;;;;;;13.07;11.77;;;9.80;99.90;;;;;;5052320;28;20206;-72
2024/03/15 06:30:08;;;;;;;12.80;11.20;;;9.80;99.90;;;;;;5066657;28;20229;-72
2024/03/15 06:32:38;;;;;;;13.10;11.50;;;9.80;99.90;;;;;;5052264;28;20199;-72
2024/03/15 06:35:18;;;;;;;14.40;12.17;;;9.80;99.90;;;;;;5053442;28;20840;-72
2024/03/15 06:37:45;;;;;;;14.50;12.37;;;9.90;99.90;;;;;;5053660;28;20981;-73
2024/03/15 06:40:19;;;;;;;12.87;11.30;;;9.90;99.90;;;;;;5052238;28;20209;-72
2024/03/15 06:45:44;;;;;;;13.07;11.43;;;10.00;99.90;;;;;;5056913;28;20793;-73
2024/03/15 06:48:17;;;;;;;13.23;11.83;;;10.00;99.90;;;;;;5055785;28;20223;-73
2024/03/15 06:50:49;;;;;;;13.13;11.60;;;10.00;99.90;;;;;;5053181;28;20214;-72
2024/03/15 06:53:18;;;;;;;13.37;11.20;;;10.00;99.90;;;;;;5053504;28;20652;-73
2024/03/15 06:55:45;;;;;;;12.47;11.20;;;10.00;99.90;;;;;;5051949;28;20218;-73
2024/03/15 06:58:12;;;;;;;11.37;10.17;;;10.00;99.90;;;;;;5051187;28;20293;-73
2024/03/15 07:00:41;;;;;;;14.43;12.20;;;10.10;99.90;;;;;;5050484;28;20475;-73
2024/03/15 07:03:08;;;;;;;12.27;10.60;;;10.10;99.90;;;;;;5051978;28;20213;-73
2024/03/15 07:05:35;;;;;;;14.80;11.60;;;10.10;99.90;;;;;;5051464;28;20207;-73
2024/03/15 07:08:05;;;;;;;13.47;11.00;;;10.20;99.90;;;;;;5051574;28;20289;-72
2024/03/15 07:10:32;;;;;;;13.37;11.40;;;10.20;99.90;;;;;;5052217;28;20719;-73
2024/03/15 07:13:02;;;;;;;13.73;11.67;;;10.20;99.90;;;;;;5067495;28;20672;-73
2024/03/15 07:15:29;;;;;;;13.53;11.17;;;10.20;99.90;;;;;;5052185;28;20191;-72
2024/03/15 07:17:56;;;;;;;12.33;11.03;;;10.30;99.90;;;;;;5052034;28;20302;-72
2024/03/15 07:20:23;;;;;;;13.33;11.43;;;10.30;99.90;;;;;;5051197;28;20236;-72
2024/03/15 07:22:50;;;;;;;12.80;11.50;;;10.40;99.90;;;;;;5050607;28;20683;-73
2024/03/15 07:25:19;;;;;;;12.87;11.10;;;10.40;99.90;;;;;;5051040;28;20538;-73
2024/03/15 07:27:46;;;;;;;12.90;11.13;;;10.40;99.90;;;;;;5049719;28;20198;-73
2024/03/15 07:30:13;;;;;;;12.93;11.60;;;10.50;99.90;;;;;;5050775;28;20326;-72
2024/03/15 07:32:40;;;;;;;13.70;11.73;;;10.50;99.90;;;;;;5051075;28;20703;-72
2024/03/15 07:35:09;;;;;;;12.50;11.20;;;10.50;99.90;;;;;;5050838;28;20756;-72
2024/03/15 07:37:37;;;;;;;12.90;11.00;;;10.50;99.90;;;;;;5051534;28;20194;-73
2024/03/15 07:40:08;;;;;;;14.13;11.30;;;10.60;99.90;;;;;;5048722;28;20252;-72
2024/03/15 07:42:35;;;;;;;12.60;11.30;;;10.60;99.90;;;;;;5051583;28;20354;-72
2024/03/15 07:45:04;;;;;;;13.03;10.77;;;10.60;99.90;;;;;;5050349;28;20202;-73
2024/03/15 07:47:31;;;;;;;14.13;11.00;;;10.70;99.90;;;;;;5050923;28;20866;-73
2024/03/15 07:49:58;;;;;;;13.07;11.40;;;10.70;99.90;;;;;;5051126;28;20218;-73
2024/03/15 07:52:25;;;;;;;12.53;10.57;;;10.70;99.90;;;;;;5051002;28;20195;-72
2024/03/15 07:54:52;;;;;;;12.77;11.47;;;10.80;99.90;;;;;;5048931;28;20322;-73
2024/03/15 07:57:19;;;;;;;16.83;10.90;;;10.80;99.90;;;;;;5050282;28;20335;-73
2024/03/15 07:59:46;;;;;;;12.93;11.23;;;10.90;99.90;;;;;;5055702;28;20251;-72
2024/03/15 08:02:14;;;;;;;12.23;10.93;;;10.90;99.90;;;;;;5050641;28;20299;-72
2024/03/15 08:04:45;;;;;;;12.23;10.47;;;10.90;99.90;;;;;;5051264;28;20198;-73
2024/03/15 08:07:12;;;;;;;14.33;11.40;;;10.90;99.90;;;;;;5051685;28;20556;-73
2024/03/15 08:09:39;;;;;;;13.33;11.33;;;11.00;99.90;;;;;;5066808;28;20833;-72
2024/03/15 08:12:07;;;;;;;12.10;10.90;;;11.10;99.90;;;;;;5050891;28;20209;-72
2024/03/15 08:14:36;;;;;;;11.93;10.43;;;11.20;99.90;;;;;;5050363;28;20632;-72
2024/03/15 08:17:04;;;;;;;12.50;11.20;;;11.30;99.90;;;;;;5055719;28;20225;-72
2024/03/15 08:19:31;;;;;;;13.07;10.87;;;11.30;99.90;;;;;;5055310;28;20206;-73
2024/03/15 08:21:59;;;;;;;12.03;10.03;;;11.40;99.90;;;;;;5054571;28;20669;-72
2024/03/15 08:24:26;;;;;;;11.10;10.00;;;11.40;99.90;;;;;;5054964;28;20576;-72
2024/03/15 08:26:53;;;;;;;11.60;10.40;;;11.50;99.90;;;;;;5054591;28;20744;-72
2024/03/15 08:29:21;;;;;;;13.97;10.27;;;11.60;99.90;;;;;;5054210;28;20233;-72
2024/03/15 08:31:48;;;;;;;11.40;10.40;;;11.60;99.90;;;;;;5068995;28;20199;-72
2024/03/15 08:34:16;;;;;;;11.33;10.23;;;11.60;99.90;;;;;;5054211;28;20812;-72
2024/03/15 08:36:43;;;;;;;10.00;8.97;;;11.70;99.90;;;;;;5053925;28;20199;-72
2024/03/15 08:39:12;;;;;;;11.30;10.30;;;11.70;99.90;;;;;;5054638;28;20285;-72
2024/03/15 08:41:39;;;;;;;12.13;10.67;;;11.80;99.90;;;;;;5054926;28;20221;-73
2024/03/15 08:44:07;;;;;;;12.70;10.90;;;11.80;99.90;;;;;;5054173;28;20849;-72
2024/03/15 08:46:35;;;;;;;11.93;10.63;;;11.90;99.90;;;;;;5054160;28;20199;-72
2024/03/15 08:49:02;;;;;;;9.87;8.87;;;11.90;99.90;;;;;;5054722;28;20387;-73
2024/03/15 08:51:29;;;;;;;10.80;9.70;;;11.90;99.90;;;;;;5053732;28;20254;-73
2024/03/15 08:53:57;;;;;;;11.77;10.40;;;12.00;99.90;;;;;;5069535;28;20295;-73
2024/03/15 08:56:26;;;;;;;11.07;9.93;;;12.00;99.90;;;;;;5053863;28;20210;-72
2024/03/15 08:58:53;;;;;;;10.83;9.80;;;12.10;99.90;;;;;;5054191;28;20202;-73
2024/03/15 09:01:24;;;;;;;11.17;10.03;;;12.20;99.90;;;;;;5054331;28;20211;-73
2024/03/15 09:03:51;;;;;;;11.07;9.87;;;12.20;99.90;;;;;;5052965;28;20191;-72
2024/03/15 09:06:19;;;;;;;10.73;9.63;;;12.30;99.90;;;;;;5053597;28;20213;-73
2024/03/15 09:08:54;;;;;;;11.40;10.20;;;12.40;99.90;;;;;;5054195;28;20205;-73
2024/03/15 09:11:22;;;;;;;10.80;9.37;;;12.40;99.90;;;;;;5056149;28;20354;-73
2024/03/15 09:13:49;;;;;;;10.67;9.57;;;12.50;99.90;;;;;;5051499;28;20261;-73
2024/03/15 09:16:16;;;;;;;13.90;9.67;;;12.50;99.90;;;;;;5053368;28;20703;-73
2024/03/15 09:18:44;;;;;;;9.67;8.77;;;12.50;99.90;;;;;;5053438;28;20651;-72
2024/03/15 09:21:11;;;;;;;10.97;9.53;;;12.50;99.90;;;;;;5054315;28;20569;-73
2024/03/15 09:23:38;;;;;;;10.93;9.63;;;12.50;99.90;;;;;;5044086;28;20226;-73
2024/03/15 09:26:06;;;;;;;12.07;9.67;;;12.50;99.90;;;;;;5069871;28;20339;-73
2024/03/15 09:28:37;;;;;;;10.37;9.27;;;12.60;99.90;;;;;;5054128;28;20307;-73
2024/03/15 09:31:08;;;;;;;9.80;8.90;;;12.70;99.90;;;;;;5055062;28;20638;-73
2024/03/15 09:33:35;;;;;;;10.37;9.37;;;12.80;99.90;;;;;;5055028;28;20274;-73
2024/03/15 09:36:04;;;;;;;10.43;8.90;;;13.00;99.90;;;;;;5054017;28;20203;-73
2024/03/15 09:38:32;;;;;;;9.73;8.70;;;13.10;99.90;;;;;;5070197;28;20211;-73
2024/03/15 09:40:59;;;;;;;9.47;8.57;;;13.20;99.90;;;;;;5070183;28;20207;-73
2024/03/15 09:43:26;;;;;;;9.23;8.10;;;13.30;99.90;;;;;;5070262;28;20669;-73
2024/03/15 09:45:53;;;;;;;9.43;8.33;;;13.40;99.90;;;;;;5067110;28;20303;-73
2024/03/15 09:48:20;;;;;;;11.03;8.13;;;13.60;99.90;;;;;;5051930;28;20665;-73
2024/03/15 09:50:50;;;;;;;8.97;8.17;;;13.80;99.90;;;;;;5052730;28;20226;-73
2024/03/15 09:53:17;;;;;;;9.00;8.20;;;14.00;99.90;;;;;;5053297;28;20617;-73
2024/03/15 09:55:44;;;;;;;8.90;8.10;;;14.10;99.90;;;;;;5052738;28;20758;-73
2024/03/15 09:58:11;;;;;;;9.10;8.17;;;14.20;99.90;;;;;;5052808;28;20272;-73
2024/03/15 10:00:38;;;;;;;8.90;8.00;;;14.30;99.90;;;;;;5053100;28;20210;-73
2024/03/15 10:03:07;;;;;;;9.13;8.23;;;14.40;99.90;;;;;;5052952;28;20213;-73
2024/03/15 10:05:34;;;;;;;10.37;8.13;;;14.40;99.90;;;;;;5052973;28;20206;-73
2024/03/15 10:08:01;;;;;;;8.43;7.63;;;14.40;99.90;;;;;;5066130;28;20769;-73
2024/03/15 10:10:28;;;;;;;9.57;8.60;;;14.50;99.90;;;;;;5052522;28;20690;-73
2024/03/15 10:12:55;;;;;;;9.77;8.37;;;14.40;99.90;;;;;;5052330;28;20213;-73
2024/03/15 10:15:23;;;;;;;9.73;8.67;;;14.40;99.90;;;;;;5052015;28;20230;-73
2024/03/15 10:17:51;;;;;;;8.80;8.00;;;14.30;99.90;;;;;;5052945;28;20195;-73
2024/03/15 10:20:18;;;;;;;9.47;8.27;;;14.30;99.90;;;;;;5052582;28;20318;-73
2024/03/15 10:22:45;;;;;;;9.10;8.30;;;14.30;99.90;;;;;;5052703;28;20704;-73
2024/03/15 10:25:15;;;;;;;9.47;8.57;;;14.20;99.90;;;;;;5051770;28;20692;-73
2024/03/15 10:27:43;;;;;;;9.40;8.33;;;14.20;99.90;;;;;;5052298;28;20302;-73
2024/03/15 10:30:14;;;;;;;9.13;8.27;;;14.20;99.90;;;;;;5049191;28;20206;-73
2024/03/15 10:32:41;;;;;;;9.27;8.37;;;14.20;99.90;;;;;;5052588;28;20195;-73
2024/03/15 10:35:09;;;;;;;9.40;8.50;;;14.20;99.90;;;;;;5051618;28;20570;-73
2024/03/15 10:37:38;;;;;;;8.97;8.17;;;14.30;99.90;;;;;;5052132;28;20658;-73
2024/03/15 10:40:07;;;;;;;9.50;8.53;;;14.40;99.90;;;;;;5052053;28;20210;-73
2024/03/15 10:42:34;;;;;;;9.27;8.47;;;14.50;99.90;;;;;;5052416;28;20206;-73
2024/03/15 10:45:01;;;;;;;10.73;8.43;;;14.70;99.90;;;;;;5052166;28;20210;-73
2024/03/15 10:47:28;;;;;;;8.63;7.73;;;14.90;99.90;;;;;;5051484;28;20314;-73
2024/03/15 10:49:55;;;;;;;9.53;8.53;;;15.00;99.90;;;;;;5051742;28;20290;-73
2024/03/15 10:52:23;;;;;;;9.13;8.30;;;15.20;99.90;;;;;;5051972;28;20250;-73
2024/03/15 10:54:51;;;;;;;9.97;8.97;;;15.40;99.90;;;;;;5052066;28;20935;-70
2024/03/15 10:57:18;;;;;;;9.23;8.43;;;15.60;99.90;;;;;;5051476;28;20207;-71
2024/03/15 10:59:45;;;;;;;9.37;8.43;;;15.70;99.90;;;;;;5052186;28;20194;-71
2024/03/15 11:02:12;;;;;;;8.93;8.13;;;15.90;99.90;;;;;;5051356;28;20195;-71
2024/03/15 11:04:39;;;;;;;9.23;8.30;;;16.00;99.90;;;;;;5048556;28;20295;-71
2024/03/15 11:07:06;;;;;;;9.57;8.50;;;16.10;99.90;;;;;;5051451;28;20333;-73
2024/03/15 11:09:35;;;;;;;9.33;8.43;;;16.10;99.90;;;;;;5051058;28;20297;-71
2024/03/15 11:12:03;;;;;;;9.53;8.67;;;16.20;99.90;;;;;;5051433;28;20222;-71
2024/03/15 11:14:36;;;;;;;8.83;7.93;;;16.30;99.90;;;;;;5051031;28;20240;-72
2024/03/15 11:17:05;;;;;;;9.80;8.70;;;16.50;99.90;;;;;;5052204;28;20203;-71
2024/03/15 11:19:42;;;;;;;8.57;7.87;;;16.60;99.90;;;;;;5049202;28;20199;-71
2024/03/15 11:22:16;;;;;;;9.23;8.33;;;16.60;99.90;;;;;;5051330;28;20203;-71
2024/03/15 11:24:47;;;;;;;9.30;8.37;;;16.70;99.90;;;;;;5058715;28;20191;-71
2024/03/15 11:27:14;;;;;;;9.37;8.47;;;16.70;99.90;;;;;;5045187;28;20304;-72
2024/03/15 11:29:43;;;;;;;7.90;7.30;;;16.70;99.90;;;;;;5051410;28;20367;-71
2024/03/15 11:32:11;;;;;;;8.10;7.30;;;16.80;99.90;;;;;;5051071;28;20223;-71
2024/03/15 11:34:39;;;;;;;8.27;6.23;;;16.90;99.90;;;;;;5052063;28;20194;-71
2024/03/15 11:37:10;;;;;;;8.23;7.40;;;17.00;99.90;;;;;;5051428;28;20545;-71
2024/03/15 11:39:37;;;;;;;9.47;8.57;;;17.10;99.90;;;;;;5067309;28;20256;-72
2024/03/15 11:42:04;;;;;;;8.10;7.37;;;17.20;99.90;;;;;;5051545;28;20290;-71
2024/03/15 11:44:31;;;;;;;9.23;8.33;;;17.30;99.90;;;;;;5051634;28;20248;-72
2024/03/15 11:46:58;;;;;;;7.40;6.73;;;17.20;99.90;;;;;;5049097;28;20310;-71
2024/03/15 11:49:25;;;;;;;6.17;5.53;;;17.30;99.90;;;;;;5051278;28;20203;-71
2024/03/15 11:51:57;;;;;;;5.63;5.13;;;17.50;99.90;;;;;;5067892;28;20313;-71
2024/03/15 11:54:24;;;;;;;7.27;6.57;;;17.60;99.90;;;;;;5051737;28;20207;-71
2024/03/15 11:56:57;;;;;;;6.50;5.90;;;17.60;99.90;;;;;;5050905;28;20199;-71
2024/03/15 11:59:27;;;;;;;6.00;5.50;;;17.70;99.90;;;;;;5052821;28;20555;-71
2024/03/15 12:01:54;;;;;;;6.00;5.43;;;17.70;99.90;;;;;;5049754;28;20282;-71
2024/03/15 12:04:25;;;;;;;5.73;5.33;;;17.80;99.90;;;;;;5050767;28;20810;-71
2024/03/15 12:06:52;;;;;;;6.30;5.67;;;17.90;99.90;;;;;;5066911;28;20380;-71
2024/03/15 12:09:19;;;;;;;6.50;5.90;;;18.10;99.90;;;;;;5051430;28;20635;-72
2024/03/15 12:11:46;;;;;;;6.60;5.90;;;18.20;99.90;;;;;;5051374;28;20229;-72
2024/03/15 12:14:13;;;;;;;5.90;5.40;;;18.20;99.90;;;;;;5052524;28;20869;-72
2024/03/15 12:16:43;;;;;;;6.20;5.40;;;18.40;99.90;;;;;;5028581;28;20287;-71
2024/03/15 12:19:12;;;;;;;6.40;5.80;;;18.50;99.90;;;;;;5028888;28;20200;-72
2024/03/15 12:21:40;;;;;;;6.60;6.00;;;18.60;99.90;;;;;;5028640;28;20690;-72
2024/03/15 12:24:07;;;;;;;6.07;5.57;;;18.70;99.90;;;;;;5028321;28;20235;-72
2024/03/15 12:26:34;;;;;;;8.70;6.20;;;18.70;99.90;;;;;;5028255;28;20205;-72
2024/03/15 12:29:01;;;;;;;7.67;6.37;;;18.80;99.90;;;;;;5028770;28;20298;-72
2024/03/15 12:31:28;;;;;;;8.93;6.60;;;18.70;99.90;;;;;;5042093;28;20227;-72
2024/03/15 12:33:55;;;;;;;7.03;6.07;;;18.70;99.90;;;;;;5028835;28;20200;-72
2024/03/15 12:36:22;;;;;;;6.43;5.73;;;18.80;99.90;;;;;;5028534;28;20281;-72
2024/03/15 12:38:49;;;;;;;6.63;5.87;;;18.80;99.90;;;;;;5028699;28;20208;-73
2024/03/15 12:41:17;;;;;;;6.93;6.20;;;18.90;99.90;;;;;;5028431;28;20196;-72
2024/03/15 12:43:44;;;;;;;6.70;6.07;;;19.00;99.90;;;;;;5028389;28;20208;-72